createdAt,value
2023-03-30T00:00:01.745Z,101003.13
2023-03-30T00:02:54.133Z,101004.47
2023-03-30T00:05:43.337Z,101008.47
2023-03-30T00:08:33.586Z,101001.56
2023-03-30T00:11:23.510Z,100997.78
2023-03-30T00:14:12.264Z,101000.19
2023-03-30T00:17:00.124Z,101008.28
2023-03-30T00:19:48.737Z,101017.19
2023-03-30T00:22:36.763Z,100990.00
2023-03-30T00:25:24.749Z,101010.13
2023-03-30T00:28:12.494Z,100999.25
2023-03-30T00:31:00.364Z,100992.75
2023-03-30T00:34:01.382Z,101013.63
2023-03-30T00:36:49.409Z,101000.00
2023-03-30T00:39:37.082Z,100997.13
2023-03-30T00:42:25.327Z,101014.78
2023-03-30T00:45:24.626Z,101019.03
2023-03-30T00:48:32.319Z,101015.75
2023-03-30T00:51:20.206Z,100999.44
2023-03-30T00:54:13.737Z,101005.16
2023-03-30T00:57:02.951Z,101002.09
2023-03-30T00:59:52.548Z,100990.59
2023-03-30T01:02:57.413Z,101014.78
2023-03-30T01:05:45.754Z,101000.16
2023-03-30T01:08:34.997Z,101014.13
2023-03-30T01:11:22.830Z,101002.94
2023-03-30T01:14:12.890Z,101011.78
2023-03-30T01:17:15.540Z,100995.00
2023-03-30T01:20:22.782Z,101010.94
2023-03-30T01:23:47.314Z,100990.03
2023-03-30T01:26:43.210Z,101016.81
2023-03-30T01:29:39.757Z,101013.69
2023-03-30T01:32:50.140Z,101010.41
2023-03-30T01:35:53.285Z,101015.91
2023-03-30T01:39:14.712Z,100983.25
2023-03-30T01:42:17.381Z,101015.22
2023-03-30T01:45:19.919Z,101015.38
2023-03-30T01:48:29.574Z,101012.00
2023-03-30T01:51:24.281Z,101001.84
2023-03-30T01:54:21.191Z,101005.41
2023-03-30T01:57:29.033Z,101003.22
2023-03-30T02:00:21.454Z,100997.16
2023-03-30T02:03:17.698Z,101014.00
2023-03-30T02:06:17.749Z,101005.88
2023-03-30T02:09:10.754Z,101007.72
2023-03-30T02:12:00.992Z,100997.53
2023-03-30T02:14:49.972Z,101007.78
2023-03-30T02:17:38.553Z,101000.75
2023-03-30T02:20:28.980Z,101013.75
2023-03-30T02:23:21.418Z,100982.59
2023-03-30T02:26:09.982Z,101014.44
2023-03-30T02:28:59.210Z,101014.16
2023-03-30T02:31:51.402Z,101017.47
2023-03-30T02:35:09.223Z,101013.50
2023-03-30T02:38:18.862Z,101019.03
2023-03-30T02:41:28.627Z,101021.75
2023-03-30T02:44:48.426Z,101021.88
2023-03-30T02:47:54.739Z,101028.97
2023-03-30T02:51:06.419Z,101007.97
2023-03-30T02:54:58.950Z,101007.16
2023-03-30T02:58:08.430Z,101020.53
2023-03-30T03:01:20.145Z,101014.66
2023-03-30T03:04:19.161Z,101027.38
2023-03-30T03:07:28.130Z,101016.81
2023-03-30T03:10:15.987Z,101018.84
2023-03-30T03:13:03.902Z,101022.41
2023-03-30T03:15:56.512Z,101029.91
2023-03-30T03:18:46.226Z,101015.94
2023-03-30T03:21:34.024Z,101016.63
2023-03-30T03:24:21.976Z,101033.41
2023-03-30T03:27:28.536Z,101030.19
2023-03-30T03:30:36.424Z,101010.72
2023-03-30T03:33:32.240Z,101031.94
2023-03-30T03:36:28.977Z,101052.06
2023-03-30T03:39:16.603Z,101054.63
2023-03-30T03:42:05.410Z,101054.63
2023-03-30T03:44:54.731Z,100985.41
2023-03-30T03:47:42.533Z,101043.72
2023-03-30T03:50:30.769Z,101046.91
2023-03-30T03:53:18.979Z,101050.13
2023-03-30T03:56:07.774Z,101046.19
2023-03-30T03:58:55.599Z,101036.88
2023-03-30T04:01:43.354Z,101050.13
2023-03-30T04:04:31.472Z,101057.16
2023-03-30T04:07:19.788Z,101066.16
2023-03-30T04:10:08.222Z,101037.91
2023-03-30T04:13:07.745Z,101070.59
2023-03-30T04:16:28.784Z,101058.66
2023-03-30T04:19:42.605Z,101065.94
2023-03-30T04:22:53.654Z,101051.50
2023-03-30T04:25:41.363Z,101047.66
2023-03-30T04:29:03.448Z,101065.84
2023-03-30T04:32:21.238Z,101032.16
2023-03-30T04:35:19.435Z,101066.00
2023-03-30T04:38:25.712Z,101058.91
2023-03-30T04:41:33.656Z,101082.63
2023-03-30T04:44:32.747Z,101089.47
2023-03-30T04:47:40.279Z,101048.41
2023-03-30T04:50:48.274Z,101078.28
2023-03-30T04:54:02.582Z,101081.06
2023-03-30T04:57:08.877Z,101086.63
2023-03-30T05:00:24.302Z,101091.34
2023-03-30T05:03:12.574Z,101065.50
2023-03-30T05:06:09.295Z,101092.94
2023-03-30T05:09:17.580Z,101072.09
2023-03-30T05:12:28.187Z,101084.91
2023-03-30T05:15:40.028Z,101089.25
2023-03-30T05:18:46.138Z,101079.72
2023-03-30T05:21:41.748Z,101091.41
2023-03-30T05:24:35.355Z,101093.56
2023-03-30T05:27:23.041Z,101094.44
2023-03-30T05:30:29.067Z,101095.00
2023-03-30T05:33:37.791Z,101061.53
2023-03-30T05:36:44.175Z,101092.44
2023-03-30T05:39:57.896Z,101086.59
2023-03-30T05:43:01.805Z,101097.75
2023-03-30T05:46:25.030Z,101095.31
2023-03-30T05:49:21.932Z,101091.75
2023-03-30T05:52:29.883Z,101092.19
2023-03-30T05:55:32.061Z,101099.63
2023-03-30T05:58:52.369Z,101091.31
2023-03-30T06:02:20.034Z,101083.44
2023-03-30T06:05:12.785Z,101041.66
2023-03-30T06:08:02.424Z,101076.00
2023-03-30T06:10:55.183Z,101076.84
2023-03-30T06:13:44.602Z,101085.88
2023-03-30T06:16:34.820Z,101083.13
2023-03-30T06:19:23.483Z,101075.59
2023-03-30T06:22:11.703Z,101078.50
2023-03-30T06:25:13.903Z,101068.22
2023-03-30T06:28:02.747Z,101090.78
2023-03-30T06:30:51.053Z,101018.69
2023-03-30T06:33:42.385Z,101083.69
2023-03-30T06:36:44.260Z,101077.63
2023-03-30T06:39:40.025Z,101095.31
2023-03-30T06:42:28.149Z,101110.84
2023-03-30T06:45:33.023Z,101090.44
2023-03-30T06:48:24.165Z,101099.34
2023-03-30T06:51:29.864Z,101097.66
2023-03-30T06:54:20.860Z,101096.34
2023-03-30T06:57:16.073Z,101100.06
2023-03-30T07:00:13.628Z,101054.19
2023-03-30T07:03:01.636Z,101088.81
2023-03-30T07:05:55.864Z,101076.63
2023-03-30T07:08:55.271Z,101095.56
2023-03-30T07:11:45.899Z,101092.78
2023-03-30T07:14:34.114Z,101080.25
2023-03-30T07:17:26.467Z,101080.81
2023-03-30T07:20:17.523Z,101083.28
2023-03-30T07:23:23.421Z,101088.09
2023-03-30T07:26:13.278Z,101075.78
2023-03-30T07:29:15.822Z,101076.31
2023-03-30T07:32:08.470Z,101073.94
2023-03-30T07:34:56.414Z,101072.84
2023-03-30T07:37:50.443Z,101047.59
2023-03-30T07:40:39.330Z,101059.81
2023-03-30T07:43:27.662Z,101077.50
2023-03-30T07:46:17.293Z,101074.34
2023-03-30T07:49:08.491Z,101080.38
2023-03-30T07:51:57.128Z,101056.47
2023-03-30T07:54:50.145Z,101072.06
2023-03-30T07:57:41.034Z,101068.44
2023-03-30T08:00:29.481Z,101024.63
2023-03-30T08:03:37.693Z,101056.50
2023-03-30T08:06:27.423Z,101058.34
2023-03-30T08:09:18.900Z,101048.72
2023-03-30T08:12:08.118Z,101062.50
2023-03-30T08:14:58.697Z,101065.50
2023-03-30T08:17:46.502Z,101071.56
2023-03-30T08:20:36.732Z,101067.94
2023-03-30T08:23:24.524Z,101035.41
2023-03-30T08:26:12.331Z,101052.00
2023-03-30T08:29:00.039Z,101049.34
2023-03-30T08:31:47.963Z,101040.72
2023-03-30T08:34:37.316Z,101034.22
2023-03-30T08:37:25.295Z,101023.44
2023-03-30T08:40:14.685Z,101031.91
2023-03-30T08:43:21.880Z,101041.28
2023-03-30T08:46:16.350Z,101037.06
2023-03-30T08:49:08.978Z,101013.03
2023-03-30T08:51:57.374Z,101034.50
2023-03-30T08:54:45.141Z,101036.03
2023-03-30T08:57:44.295Z,101006.50
2023-03-30T09:00:45.362Z,101008.16
2023-03-30T09:03:45.657Z,101028.09
2023-03-30T09:06:53.151Z,101018.31
2023-03-30T09:09:47.232Z,101019.53
2023-03-30T09:12:41.964Z,101017.03
2023-03-30T09:15:52.903Z,100996.00
2023-03-30T09:18:43.718Z,100991.13
2023-03-30T09:21:32.413Z,101002.38
2023-03-30T09:24:25.963Z,100996.72
2023-03-30T09:27:25.538Z,100990.88
2023-03-30T09:30:23.168Z,100995.94
2023-03-30T09:33:35.881Z,100990.88
2023-03-30T09:36:35.830Z,100987.72
2023-03-30T09:39:29.597Z,100963.09
2023-03-30T09:42:59.773Z,100982.94
2023-03-30T09:45:47.670Z,100951.66
2023-03-30T09:48:48.909Z,100956.94
2023-03-30T09:51:37.029Z,100957.94
2023-03-30T09:54:36.978Z,100964.38
2023-03-30T09:57:31.401Z,100967.69
2023-03-30T10:00:34.406Z,100947.22
2023-03-30T10:03:24.189Z,100956.63
2023-03-30T10:06:13.490Z,100954.22
2023-03-30T10:09:07.281Z,100949.41
2023-03-30T10:11:55.859Z,100944.25
2023-03-30T10:14:44.039Z,100935.44
2023-03-30T10:17:32.369Z,100942.34
2023-03-30T10:20:31.010Z,100906.22
2023-03-30T10:23:22.339Z,100934.56
2023-03-30T10:26:19.398Z,100927.75
2023-03-30T10:29:12.359Z,100934.78
2023-03-30T10:32:04.484Z,100929.31
2023-03-30T10:34:55.383Z,100910.91
2023-03-30T10:37:47.227Z,100917.44
2023-03-30T10:40:38.189Z,100911.97
2023-03-30T10:43:32.216Z,100891.31
2023-03-30T10:46:23.512Z,100909.47
2023-03-30T10:49:43.672Z,100873.19
2023-03-30T10:52:59.077Z,100894.47
2023-03-30T10:56:13.192Z,100896.88
2023-03-30T10:59:41.625Z,100887.31
2023-03-30T11:02:59.948Z,100870.88
2023-03-30T11:05:52.893Z,100854.00
2023-03-30T11:08:45.538Z,100857.34
2023-03-30T11:11:49.588Z,100838.09
2023-03-30T11:14:48.261Z,100853.56
2023-03-30T11:17:49.236Z,100858.84
2023-03-30T11:20:47.910Z,100840.19
2023-03-30T11:23:50.449Z,100850.63
2023-03-30T11:26:43.694Z,100841.50
2023-03-30T11:29:38.977Z,100836.84
2023-03-30T11:32:45.132Z,100832.06
2023-03-30T11:36:05.606Z,100816.81
2023-03-30T11:39:08.427Z,100819.75
2023-03-30T11:42:13.073Z,100801.97
2023-03-30T11:45:02.969Z,100769.06
2023-03-30T11:48:02.726Z,100790.13
2023-03-30T11:51:23.788Z,100789.09
2023-03-30T11:55:02.905Z,100777.72
2023-03-30T11:58:15.042Z,100768.72
2023-03-30T12:01:31.015Z,100773.16
2023-03-30T12:04:31.735Z,100751.03
2023-03-30T12:07:38.946Z,100715.22
2023-03-30T12:10:39.680Z,100753.38
2023-03-30T12:13:38.101Z,100729.69
2023-03-30T12:16:44.998Z,100732.84
2023-03-30T12:19:55.517Z,100726.47
2023-03-30T12:23:19.242Z,100734.19
2023-03-30T12:26:16.802Z,100731.13
2023-03-30T12:29:58.543Z,100727.63
2023-03-30T12:32:31.561Z,100704.88
2023-03-30T12:35:51.389Z,100723.19
2023-03-30T12:38:43.784Z,100711.16
2023-03-30T12:41:48.991Z,100707.69
2023-03-30T12:45:07.155Z,100681.84
2023-03-30T12:48:26.572Z,100690.19
2023-03-30T12:51:37.065Z,100691.84
2023-03-30T12:55:06.396Z,100619.34
2023-03-30T12:58:14.950Z,100686.28
2023-03-30T13:01:20.827Z,100684.72
2023-03-30T13:04:23.823Z,100653.25
2023-03-30T13:07:22.203Z,100684.44
2023-03-30T13:10:31.995Z,100665.59
2023-03-30T13:13:50.539Z,100661.00
2023-03-30T13:16:53.502Z,100661.97
2023-03-30T13:19:48.680Z,100661.09
2023-03-30T13:22:36.597Z,100626.34
2023-03-30T13:25:50.018Z,100650.81
2023-03-30T13:28:37.733Z,100647.84
2023-03-30T13:31:31.151Z,100630.59
2023-03-30T13:34:31.843Z,100633.53
2023-03-30T13:37:32.744Z,100625.94
2023-03-30T13:40:39.648Z,100623.13
2023-03-30T13:44:03.523Z,100622.94
2023-03-30T13:47:18.783Z,100602.13
2023-03-30T13:50:13.244Z,100598.19
2023-03-30T13:53:11.103Z,100619.44
2023-03-30T13:55:59.331Z,100594.69
2023-03-30T13:59:11.955Z,100605.66
2023-03-30T14:02:02.103Z,100601.72
2023-03-30T14:04:50.722Z,100600.06
2023-03-30T14:07:43.640Z,100607.56
2023-03-30T14:10:31.339Z,100591.56
2023-03-30T14:13:21.794Z,100603.72
2023-03-30T14:16:19.075Z,100600.47
2023-03-30T14:19:09.702Z,100592.91
2023-03-30T14:22:09.568Z,100587.63
2023-03-30T14:25:03.682Z,100587.59
2023-03-30T14:27:51.366Z,100580.78
2023-03-30T14:30:39.177Z,100565.50
2023-03-30T14:33:27.021Z,100568.72
2023-03-30T14:36:17.862Z,100565.34
2023-03-30T14:39:09.855Z,100559.34
2023-03-30T14:42:06.220Z,100543.81
2023-03-30T14:44:57.348Z,100548.84
2023-03-30T14:47:48.203Z,100544.31
2023-03-30T14:50:37.467Z,100497.19
2023-03-30T14:53:29.598Z,100504.34
2023-03-30T14:56:22.430Z,100528.13
2023-03-30T14:59:13.266Z,100521.47
2023-03-30T15:02:02.480Z,100512.44
2023-03-30T15:04:51.355Z,100506.88
2023-03-30T15:07:40.133Z,100510.06
2023-03-30T15:10:50.842Z,100472.19
2023-03-30T15:13:47.021Z,100489.28
2023-03-30T15:16:36.770Z,100479.75
2023-03-30T15:19:33.122Z,100465.34
2023-03-30T15:22:33.274Z,100473.63
2023-03-30T15:25:34.091Z,100489.72
2023-03-30T15:28:22.440Z,100465.63
2023-03-30T15:31:13.982Z,100479.41
2023-03-30T15:34:02.153Z,100484.41
2023-03-30T15:36:54.776Z,100472.53
2023-03-30T15:39:49.413Z,100470.47
2023-03-30T15:42:37.204Z,100468.88
2023-03-30T15:45:24.938Z,100444.41
2023-03-30T15:48:12.910Z,100460.38
2023-03-30T15:51:24.229Z,100463.22
2023-03-30T15:54:16.052Z,100468.97
2023-03-30T15:57:20.973Z,100456.16
2023-03-30T16:00:17.650Z,100443.31
2023-03-30T16:03:08.082Z,100451.69
2023-03-30T16:05:57.126Z,100461.81
2023-03-30T16:08:47.866Z,100460.09
2023-03-30T16:11:36.580Z,100456.38
2023-03-30T16:14:24.508Z,100456.53
2023-03-30T16:17:15.788Z,100461.91
2023-03-30T16:20:14.347Z,100414.97
2023-03-30T16:23:01.985Z,100459.00
2023-03-30T16:26:10.553Z,100454.19
2023-03-30T16:28:58.388Z,100453.19
2023-03-30T16:31:46.212Z,100452.69
2023-03-30T16:34:34.032Z,100457.50
2023-03-30T16:37:22.653Z,100453.56
2023-03-30T16:40:36.452Z,100453.91
2023-03-30T16:43:25.301Z,100456.69
2023-03-30T16:46:17.987Z,100447.50
2023-03-30T16:49:17.835Z,100452.47
2023-03-30T16:52:10.107Z,100451.56
2023-03-30T16:54:57.711Z,100430.50
2023-03-30T16:57:45.916Z,100450.00
2023-03-30T17:00:38.734Z,100427.00
2023-03-30T17:03:26.661Z,100461.59
2023-03-30T17:06:16.480Z,100457.94
2023-03-30T17:09:04.227Z,100443.56
2023-03-30T17:11:51.893Z,100452.22
2023-03-30T17:14:42.597Z,100449.09
2023-03-30T17:17:32.913Z,100427.84
2023-03-30T17:20:33.400Z,100456.69
2023-03-30T17:23:25.967Z,100425.44
2023-03-30T17:26:14.764Z,100456.16
2023-03-30T17:29:03.744Z,100441.50
2023-03-30T17:31:54.291Z,100448.81
2023-03-30T17:34:41.902Z,100438.31
2023-03-30T17:37:29.697Z,100448.56
2023-03-30T17:40:24.307Z,100430.16
2023-03-30T17:43:12.219Z,100437.88
2023-03-30T17:46:00.002Z,100425.09
2023-03-30T17:48:48.274Z,100431.25
2023-03-30T17:51:35.892Z,100443.13
2023-03-30T17:54:24.244Z,100406.00
2023-03-30T17:57:12.073Z,100425.09
2023-03-30T18:00:02.270Z,100416.78
2023-03-30T18:02:53.507Z,100397.53
2023-03-30T18:05:41.716Z,100418.25
2023-03-30T18:08:29.927Z,100421.00
2023-03-30T18:11:17.673Z,100391.75
2023-03-30T18:14:05.660Z,100412.97
2023-03-30T18:17:05.609Z,100424.13
2023-03-30T18:19:54.293Z,100413.41
2023-03-30T18:22:35.674Z,100411.72
2023-03-30T18:25:31.930Z,100406.19
2023-03-30T18:28:25.811Z,100398.50
2023-03-30T18:31:18.466Z,100396.72
2023-03-30T18:34:06.318Z,100390.66
2023-03-30T18:36:53.900Z,100389.50
2023-03-30T18:39:43.796Z,100387.53
2023-03-30T18:42:31.396Z,100355.44
2023-03-30T18:45:23.837Z,100367.47
2023-03-30T18:48:14.199Z,100362.91
2023-03-30T18:51:01.952Z,100366.41
2023-03-30T18:53:49.552Z,100363.63
2023-03-30T18:56:41.180Z,100366.66
2023-03-30T18:59:28.997Z,100366.16
2023-03-30T19:02:16.784Z,100367.38
2023-03-30T19:05:04.726Z,100367.44
2023-03-30T19:07:52.943Z,100348.63
2023-03-30T19:10:42.277Z,100365.41
2023-03-30T19:13:29.908Z,100364.69
2023-03-30T19:16:18.957Z,100373.88
2023-03-30T19:19:09.935Z,100369.31
2023-03-30T19:21:59.078Z,100364.94
2023-03-30T19:24:46.909Z,100360.56
2023-03-30T19:27:34.618Z,100348.09
2023-03-30T19:30:23.078Z,100363.34
2023-03-30T19:33:15.439Z,100354.59
2023-03-30T19:36:03.286Z,100351.84
2023-03-30T19:38:51.008Z,100352.09
2023-03-30T19:41:38.723Z,100352.44
2023-03-30T19:44:26.376Z,100352.63
2023-03-30T19:47:14.147Z,100358.94
2023-03-30T19:50:11.485Z,100353.88
2023-03-30T19:52:59.762Z,100338.78
2023-03-30T19:55:47.385Z,100339.88
2023-03-30T19:58:35.048Z,100344.31
2023-03-30T20:01:23.153Z,100338.59
2023-03-30T20:04:11.188Z,100330.22
2023-03-30T20:07:00.712Z,100326.47
2023-03-30T20:09:48.526Z,100324.41
2023-03-30T20:12:36.382Z,100320.56
2023-03-30T20:15:28.724Z,100317.88
2023-03-30T20:18:18.610Z,100307.66
2023-03-30T20:21:07.024Z,100308.72
2023-03-30T20:23:58.814Z,100308.72
2023-03-30T20:26:46.541Z,100289.06
2023-03-30T20:29:34.235Z,100293.47
2023-03-30T20:32:22.204Z,100254.50
2023-03-30T20:35:10.107Z,100278.97
2023-03-30T20:37:57.966Z,100287.13
2023-03-30T20:41:00.128Z,100286.59
2023-03-30T20:43:56.816Z,100288.16
2023-03-30T20:46:45.552Z,100282.78
2023-03-30T20:49:33.803Z,100287.28
2023-03-30T20:52:22.673Z,100271.19
2023-03-30T20:55:10.680Z,100277.28
2023-03-30T20:57:58.385Z,100272.34
2023-03-30T21:00:47.721Z,100266.84
2023-03-30T21:03:35.558Z,100243.75
2023-03-30T21:06:24.077Z,100268.78
2023-03-30T21:09:11.891Z,100255.34
2023-03-30T21:11:59.633Z,100266.78
2023-03-30T21:14:47.567Z,100266.44
2023-03-30T21:17:35.297Z,100259.28
2023-03-30T21:20:23.019Z,100230.44
2023-03-30T21:23:11.648Z,100255.22
2023-03-30T21:26:04.596Z,100244.28
2023-03-30T21:28:52.744Z,100237.72
2023-03-30T21:31:40.426Z,100231.59
2023-03-30T21:34:28.266Z,100227.13
2023-03-30T21:37:16.595Z,100250.28
2023-03-30T21:40:08.897Z,100237.41
2023-03-30T21:42:56.514Z,100240.63
2023-03-30T21:45:44.213Z,100235.66
2023-03-30T21:48:34.467Z,100221.84
2023-03-30T21:51:24.994Z,100216.56
2023-03-30T21:54:16.190Z,100234.22
2023-03-30T21:57:09.323Z,100224.41
2023-03-30T21:59:57.068Z,100225.28
2023-03-30T22:02:44.812Z,100224.63
2023-03-30T22:05:32.519Z,100227.84
2023-03-30T22:08:20.225Z,100210.19
2023-03-30T22:11:16.815Z,100179.28
2023-03-30T22:14:04.636Z,100210.19
2023-03-30T22:16:52.309Z,100201.38
2023-03-30T22:19:40.798Z,100189.81
2023-03-30T22:22:28.877Z,100196.38
2023-03-30T22:25:18.061Z,100184.25
2023-03-30T22:28:05.910Z,100180.03
2023-03-30T22:30:53.618Z,100188.53
2023-03-30T22:33:41.734Z,100195.69
2023-03-30T22:36:31.325Z,100179.03
2023-03-30T22:39:19.378Z,100187.78
2023-03-30T22:42:07.259Z,100190.19
2023-03-30T22:44:54.973Z,100164.00
2023-03-30T22:47:42.807Z,100182.59
2023-03-30T22:50:30.722Z,100174.69
2023-03-30T22:53:18.631Z,100166.34
2023-03-30T22:56:07.979Z,100173.50
2023-03-30T22:58:56.331Z,100159.50
2023-03-30T23:01:44.169Z,100162.41
2023-03-30T23:04:32.034Z,100162.41
2023-03-30T23:07:19.686Z,100110.78
2023-03-30T23:10:08.325Z,100158.63
2023-03-30T23:12:58.024Z,100149.03
2023-03-30T23:15:48.844Z,100159.88
2023-03-30T23:18:36.922Z,100142.94
2023-03-30T23:21:24.889Z,100130.66
2023-03-30T23:24:12.545Z,100135.63
2023-03-30T23:27:00.401Z,100120.47
2023-03-30T23:29:48.026Z,100105.00
2023-03-30T23:32:36.060Z,100122.53
2023-03-30T23:35:24.104Z,100083.19
2023-03-30T23:38:11.871Z,100110.84
2023-03-30T23:41:00.490Z,100105.31
2023-03-30T23:43:48.736Z,100069.66
2023-03-30T23:46:36.513Z,100091.34
2023-03-30T23:49:24.488Z,100098.09
2023-03-30T23:52:12.226Z,100093.41
2023-03-30T23:55:02.157Z,100092.03
2023-03-30T23:57:49.691Z,100081.59
